Time;durP1;ratioP1;P1;durP2;ratioP2;P2;SDS_P1;SDS_P2;PMS_P1;PMS_P2;Temp;Humidity;BMP_temperature;BMP_pressure;BME280_temperature;BME280_humidity;BME280_pressure;Samples;Min_cycle;Max_cycle;Signal;HPM_P1;HPM_P2
2023/07/09 00:01:17;;;;;;;0.20;0.20;;;;;;;;;;5013858;28;20052;-82
2023/07/09 00:03:43;;;;;;;0.45;0.20;;;;;;;;;;5007068;28;20303;-81
2023/07/09 00:06:09;;;;;;;0.50;0.32;;;;;;;;;;5019101;28;20537;-80
2023/07/09 00:08:36;;;;;;;0.20;0.20;;;;;;;;;;5012494;28;20047;-81
2023/07/09 00:11:02;;;;;;;0.50;0.43;;;;;;;;;;4994928;28;20041;-80
2023/07/09 00:13:28;;;;;;;0.35;0.35;;;;;;;;;;5000854;28;20037;-81
2023/07/09 00:16:00;;;;;;;0.90;0.30;;;;;;;;;;5016185;28;20052;-80
2023/07/09 00:18:26;;;;;;;0.40;0.32;;;;;;;;;;5014471;28;20074;-82
2023/07/09 00:20:52;;;;;;;0.20;0.20;;;;;;;;;;5001519;28;20087;-81
2023/07/09 00:23:19;;;;;;;0.28;0.28;;;;;;;;;;5008459;28;20512;-82
2023/07/09 00:25:45;;;;;;;0.63;0.43;;;;;;;;;;5007807;28;20308;-82
2023/07/09 00:28:15;;;;;;;0.70;0.57;;;;;;;;;;5019402;28;20037;-81
2023/07/09 00:30:41;;;;;;;0.30;0.22;;;;;;;;;;5002490;28;20566;-82
2023/07/09 00:33:14;;;;;;;0.32;0.32;;;;;;;;;;5004996;28;20043;-81
2023/07/09 00:35:40;;;;;;;0.30;0.30;;;;;;;;;;4999848;28;20043;-82
2023/07/09 00:38:09;;;;;;;0.40;0.35;;;;;;;;;;5018018;28;20313;-81
2023/07/09 00:40:35;;;;;;;1.30;0.40;;;;;;;;;;4998557;28;20025;-82
2023/07/09 00:43:01;;;;;;;0.47;0.47;;;;;;;;;;4995245;28;20049;-82
2023/07/09 00:45:27;;;;;;;0.20;0.10;;;;;;;;;;5010079;28;20573;-81
2023/07/09 00:48:01;;;;;;;0.90;0.52;;;;;;;;;;5011138;28;20037;-81
2023/07/09 00:50:27;;;;;;;0.32;0.30;;;;;;;;;;5010934;28;20115;-81
2023/07/09 00:53:07;;;;;;;0.20;0.17;;;;;;;;;;5011289;28;20510;-81
2023/07/09 00:55:36;;;;;;;0.50;0.50;;;;;;;;;;5009036;28;20040;-81
2023/07/09 00:58:03;;;;;;;0.47;0.40;;;;;;;;;;5001925;28;20048;-81
2023/07/09 01:00:47;;;;;;;0.35;0.30;;;;;;;;;;5002525;28;20475;-81
2023/07/09 01:03:19;;;;;;;0.20;0.15;;;;;;;;;;4995131;28;20040;-82
2023/07/09 01:05:51;;;;;;;0.20;0.10;;;;;;;;;;5010392;28;20218;-81
2023/07/09 01:08:18;;;;;;;0.20;0.10;;;;;;;;;;5006981;28;20037;-81
2023/07/09 01:10:44;;;;;;;0.40;0.30;;;;;;;;;;5015112;28;20075;-80
2023/07/09 01:13:10;;;;;;;0.20;0.20;;;;;;;;;;4996864;28;20112;-82
2023/07/09 01:15:37;;;;;;;0.20;0.20;;;;;;;;;;5020199;28;20069;-81
2023/07/09 01:18:04;;;;;;;0.30;0.30;;;;;;;;;;5012367;28;20059;-81
2023/07/09 01:20:30;;;;;;;0.50;0.22;;;;;;;;;;5005113;28;20041;-81
2023/07/09 01:23:00;;;;;;;0.30;0.30;;;;;;;;;;4998696;28;20057;-83
2023/07/09 01:25:28;;;;;;;0.85;0.35;;;;;;;;;;5014560;28;20178;-81
2023/07/09 01:27:54;;;;;;;0.55;0.25;;;;;;;;;;4994428;28;20037;-82
2023/07/09 01:30:22;;;;;;;0.20;0.20;;;;;;;;;;5008996;28;20041;-81
2023/07/09 01:32:52;;;;;;;0.30;0.25;;;;;;;;;;5014098;28;20060;-81
2023/07/09 01:35:21;;;;;;;0.30;0.30;;;;;;;;;;5007852;28;20076;-81
2023/07/09 01:37:47;;;;;;;0.32;0.22;;;;;;;;;;5015488;28;20036;-81
2023/07/09 01:40:15;;;;;;;0.30;0.30;;;;;;;;;;5017469;28;20033;-82
2023/07/09 01:42:42;;;;;;;0.20;0.20;;;;;;;;;;5029310;28;20049;-81
2023/07/09 01:45:10;;;;;;;0.30;0.30;;;;;;;;;;5009181;28;20238;-81
2023/07/09 01:47:36;;;;;;;0.20;0.20;;;;;;;;;;4998482;28;20485;-82
2023/07/09 01:50:03;;;;;;;0.45;0.45;;;;;;;;;;4990250;28;21213;-82
2023/07/09 01:52:30;;;;;;;0.32;0.20;;;;;;;;;;5005681;28;20045;-81
2023/07/09 01:54:57;;;;;;;1.05;0.43;;;;;;;;;;5024754;28;20037;-81
2023/07/09 01:57:24;;;;;;;0.20;0.10;;;;;;;;;;5013956;28;20521;-80
2023/07/09 01:59:51;;;;;;;0.20;0.10;;;;;;;;;;5014938;28;21492;-82
2023/07/09 02:02:21;;;;;;;0.75;0.40;;;;;;;;;;5011744;28;20036;-81
2023/07/09 02:04:48;;;;;;;0.40;0.40;;;;;;;;;;5009241;28;20214;-81
2023/07/09 02:07:14;;;;;;;0.32;0.22;;;;;;;;;;5015959;28;20045;-81
2023/07/09 02:09:40;;;;;;;0.20;0.10;;;;;;;;;;5013267;28;20041;-82
2023/07/09 02:12:07;;;;;;;0.73;0.45;;;;;;;;;;5012296;28;20053;-82
2023/07/09 02:14:33;;;;;;;0.30;0.30;;;;;;;;;;5015834;28;20074;-82
2023/07/09 02:16:59;;;;;;;0.47;0.40;;;;;;;;;;4994030;28;20040;-81
2023/07/09 02:19:25;;;;;;;0.32;0.32;;;;;;;;;;4999011;28;20261;-82
2023/07/09 02:21:51;;;;;;;0.52;0.43;;;;;;;;;;5012274;28;20186;-82
2023/07/09 02:24:17;;;;;;;0.55;0.38;;;;;;;;;;5019202;28;20530;-82
2023/07/09 02:26:43;;;;;;;0.20;0.10;;;;;;;;;;4998138;28;20121;-81
2023/07/09 02:29:09;;;;;;;0.22;0.20;;;;;;;;;;5007506;28;20040;-82
2023/07/09 02:31:35;;;;;;;0.20;0.20;;;;;;;;;;5014639;28;20421;-82
2023/07/09 02:34:02;;;;;;;0.50;0.50;;;;;;;;;;4993594;28;20133;-82
2023/07/09 02:36:29;;;;;;;0.32;0.20;;;;;;;;;;5001019;28;20044;-81
2023/07/09 02:38:55;;;;;;;0.30;0.30;;;;;;;;;;5011678;28;20052;-82
2023/07/09 02:41:21;;;;;;;0.20;0.20;;;;;;;;;;5014287;28;20531;-82
2023/07/09 02:43:47;;;;;;;0.20;0.13;;;;;;;;;;5012229;28;20049;-82
2023/07/09 02:46:13;;;;;;;0.28;0.17;;;;;;;;;;5008492;28;20094;-82
2023/07/09 02:48:39;;;;;;;0.43;0.43;;;;;;;;;;5011073;28;20505;-82
2023/07/09 02:51:05;;;;;;;0.20;0.20;;;;;;;;;;5030552;28;20083;-82
2023/07/09 02:53:31;;;;;;;0.20;0.10;;;;;;;;;;5017106;28;20424;-81
2023/07/09 02:55:57;;;;;;;0.20;0.17;;;;;;;;;;5024441;28;20477;-82
2023/07/09 02:58:23;;;;;;;0.40;0.30;;;;;;;;;;4996731;28;20037;-82
2023/07/09 03:00:52;;;;;;;0.70;0.60;;;;;;;;;;5012648;28;20083;-82
2023/07/09 03:03:19;;;;;;;0.80;0.60;;;;;;;;;;5014073;28;20053;-82
2023/07/09 03:05:46;;;;;;;0.40;0.25;;;;;;;;;;4998698;28;20045;-82
2023/07/09 03:08:12;;;;;;;0.40;0.25;;;;;;;;;;5018826;28;20051;-82
2023/07/09 03:10:38;;;;;;;0.30;0.20;;;;;;;;;;5021161;28;20409;-82
2023/07/09 03:13:04;;;;;;;1.33;0.45;;;;;;;;;;5012246;28;20111;-82
2023/07/09 03:15:31;;;;;;;0.28;0.28;;;;;;;;;;5027526;28;20045;-82
2023/07/09 03:17:57;;;;;;;0.40;0.28;;;;;;;;;;4996514;28;20536;-82
2023/07/09 03:20:23;;;;;;;0.20;0.10;;;;;;;;;;5009645;28;20033;-82
2023/07/09 03:22:50;;;;;;;0.20;0.20;;;;;;;;;;5019069;28;20041;-81
2023/07/09 03:25:16;;;;;;;0.20;0.20;;;;;;;;;;5019691;28;20029;-82
2023/07/09 03:27:42;;;;;;;0.63;0.55;;;;;;;;;;5008894;28;20090;-82
2023/07/09 03:30:08;;;;;;;0.43;0.30;;;;;;;;;;4996544;28;20049;-82
2023/07/09 03:32:34;;;;;;;0.20;0.15;;;;;;;;;;5017173;28;20485;-82
2023/07/09 03:35:00;;;;;;;0.30;0.20;;;;;;;;;;5007362;28;20037;-82
2023/07/09 03:37:26;;;;;;;0.28;0.28;;;;;;;;;;5015099;28;20049;-81
2023/07/09 03:39:52;;;;;;;2.33;0.65;;;;;;;;;;5000743;28;20687;-82
2023/07/09 03:42:18;;;;;;;0.30;0.28;;;;;;;;;;5018167;28;20855;-83
2023/07/09 03:44:44;;;;;;;0.68;0.68;;;;;;;;;;5010241;28;20041;-82
2023/07/09 03:47:10;;;;;;;0.70;0.50;;;;;;;;;;4995865;28;20543;-82
2023/07/09 03:49:36;;;;;;;0.30;0.15;;;;;;;;;;5015052;28;20302;-83
2023/07/09 03:52:02;;;;;;;1.40;0.65;;;;;;;;;;5013654;28;20045;-83
2023/07/09 03:54:28;;;;;;;0.20;0.10;;;;;;;;;;5017086;28;20049;-82
2023/07/09 03:56:54;;;;;;;0.25;0.25;;;;;;;;;;4993447;28;20037;-82
2023/07/09 03:59:20;;;;;;;0.55;0.55;;;;;;;;;;4996278;28;20051;-82
2023/07/09 04:01:46;;;;;;;0.20;0.20;;;;;;;;;;5026707;28;20034;-82
2023/07/09 04:04:13;;;;;;;0.75;0.38;;;;;;;;;;5022681;28;20041;-82
2023/07/09 04:06:39;;;;;;;0.47;0.20;;;;;;;;;;5019556;28;20599;-83
2023/07/09 04:09:05;;;;;;;0.90;0.65;;;;;;;;;;5003055;28;20044;-83
2023/07/09 04:11:31;;;;;;;0.20;0.20;;;;;;;;;;5010619;28;20445;-82
2023/07/09 04:13:57;;;;;;;0.22;0.22;;;;;;;;;;5023481;28;20064;-82
2023/07/09 04:16:24;;;;;;;0.30;0.25;;;;;;;;;;4995417;28;20568;-82
2023/07/09 04:18:50;;;;;;;0.43;0.30;;;;;;;;;;5020782;28;20228;-82
2023/07/09 04:21:16;;;;;;;0.20;0.20;;;;;;;;;;5017554;28;20036;-81
2023/07/09 04:23:42;;;;;;;0.20;0.20;;;;;;;;;;5012956;28;20120;-82
2023/07/09 04:26:12;;;;;;;0.45;0.40;;;;;;;;;;5025082;28;20441;-82
2023/07/09 04:28:38;;;;;;;0.50;0.50;;;;;;;;;;5004128;28;20581;-82
2023/07/09 04:31:04;;;;;;;0.28;0.25;;;;;;;;;;5025656;28;20045;-82
2023/07/09 04:33:30;;;;;;;0.20;0.10;;;;;;;;;;5012339;28;20045;-82
2023/07/09 04:35:56;;;;;;;0.50;0.40;;;;;;;;;;5007388;28;20041;-82
2023/07/09 04:38:22;;;;;;;0.30;0.20;;;;;;;;;;5009519;28;20052;-83
2023/07/09 04:40:48;;;;;;;0.60;0.50;;;;;;;;;;5002508;28;20721;-82
2023/07/09 04:43:14;;;;;;;0.20;0.15;;;;;;;;;;5018634;28;20338;-82
2023/07/09 04:45:40;;;;;;;0.20;0.20;;;;;;;;;;5016539;28;20568;-81
2023/07/09 04:48:07;;;;;;;0.30;0.30;;;;;;;;;;4989987;28;20508;-82
2023/07/09 04:50:33;;;;;;;0.20;0.10;;;;;;;;;;5010585;28;20114;-82
2023/07/09 04:53:00;;;;;;;0.20;0.20;;;;;;;;;;5014738;28;20646;-82
2023/07/09 04:55:26;;;;;;;0.40;0.38;;;;;;;;;;4993331;28;20041;-82
2023/07/09 04:57:53;;;;;;;0.30;0.30;;;;;;;;;;5012514;28;20628;-81
2023/07/09 05:00:19;;;;;;;0.25;0.22;;;;;;;;;;5030150;28;20041;-82
2023/07/09 05:02:45;;;;;;;0.30;0.20;;;;;;;;;;5003948;28;20049;-81
2023/07/09 05:05:11;;;;;;;0.38;0.30;;;;;;;;;;5012264;28;20087;-81
2023/07/09 05:07:38;;;;;;;0.20;0.20;;;;;;;;;;5010943;28;20049;-81
2023/07/09 05:10:04;;;;;;;0.20;0.20;;;;;;;;;;5020696;28;20402;-81
2023/07/09 05:12:31;;;;;;;0.95;0.60;;;;;;;;;;4996156;28;20049;-80
2023/07/09 05:14:57;;;;;;;0.63;0.63;;;;;;;;;;5012531;28;20447;-82
2023/07/09 05:17:23;;;;;;;0.30;0.20;;;;;;;;;;5009733;28;20037;-81
2023/07/09 05:19:50;;;;;;;0.40;0.32;;;;;;;;;;5008310;28;20053;-80
2023/07/09 05:22:16;;;;;;;0.20;0.10;;;;;;;;;;5012964;28;20068;-80
2023/07/09 05:24:43;;;;;;;0.25;0.17;;;;;;;;;;5009178;28;20086;-82
2023/07/09 05:27:09;;;;;;;0.20;0.13;;;;;;;;;;5016229;28;20116;-82
2023/07/09 05:29:35;;;;;;;0.25;0.25;;;;;;;;;;4995252;28;20622;-81
2023/07/09 05:32:01;;;;;;;0.30;0.30;;;;;;;;;;4997684;28;20037;-80
2023/07/09 05:34:28;;;;;;;0.40;0.38;;;;;;;;;;5014006;28;20045;-80
2023/07/09 05:36:54;;;;;;;0.60;0.43;;;;;;;;;;4999379;28;20051;-80
2023/07/09 05:39:20;;;;;;;0.30;0.30;;;;;;;;;;4996691;28;20655;-81
2023/07/09 05:41:46;;;;;;;0.60;0.30;;;;;;;;;;5016664;28;20098;-80
2023/07/09 05:44:12;;;;;;;0.20;0.20;;;;;;;;;;5016606;28;20045;-81
2023/07/09 05:46:38;;;;;;;0.20;0.20;;;;;;;;;;4992874;28;20028;-81
2023/07/09 05:49:05;;;;;;;0.20;0.10;;;;;;;;;;5013523;28;20033;-81
2023/07/09 05:51:31;;;;;;;0.43;0.28;;;;;;;;;;5006200;28;20041;-81
2023/07/09 05:53:57;;;;;;;0.22;0.20;;;;;;;;;;5040294;23;20056;-82
2023/07/09 05:56:23;;;;;;;0.60;0.50;;;;;;;;;;5020450;28;20040;-82
2023/07/09 05:58:49;;;;;;;0.20;0.20;;;;;;;;;;5035470;28;20375;-81
2023/07/09 06:01:15;;;;;;;0.20;0.20;;;;;;;;;;5028166;28;21127;-82
2023/07/09 06:03:42;;;;;;;0.57;0.50;;;;;;;;;;5020780;28;20953;-81
2023/07/09 06:06:08;;;;;;;0.45;0.30;;;;;;;;;;5038989;28;20387;-82
2023/07/09 06:08:34;;;;;;;0.20;0.20;;;;;;;;;;5040047;28;20050;-82
2023/07/09 06:11:02;;;;;;;0.43;0.32;;;;;;;;;;5025667;28;20037;-82
2023/07/09 06:13:30;;;;;;;0.30;0.30;;;;;;;;;;5038189;28;20187;-83
2023/07/09 06:15:56;;;;;;;0.20;0.17;;;;;;;;;;5043475;28;20048;-81
2023/07/09 06:18:23;;;;;;;0.73;0.63;;;;;;;;;;5034247;28;20469;-83
2023/07/09 06:20:53;;;;;;;0.70;0.45;;;;;;;;;;5024249;28;20388;-83
2023/07/09 06:23:19;;;;;;;0.63;0.63;;;;;;;;;;5041561;28;20047;-82
2023/07/09 06:25:47;;;;;;;0.20;0.20;;;;;;;;;;5019346;28;20040;-82
2023/07/09 06:28:14;;;;;;;0.32;0.25;;;;;;;;;;5017771;28;20174;-82
2023/07/09 06:30:40;;;;;;;0.43;0.43;;;;;;;;;;5034101;28;21961;-81
2023/07/09 06:33:06;;;;;;;0.55;0.55;;;;;;;;;;5011860;28;20544;-81
2023/07/09 06:35:32;;;;;;;0.68;0.40;;;;;;;;;;5023015;28;20104;-82
2023/07/09 06:37:58;;;;;;;0.20;0.20;;;;;;;;;;5011517;28;20490;-83
2023/07/09 06:40:24;;;;;;;0.20;0.20;;;;;;;;;;5016332;28;20091;-84
2023/07/09 06:42:51;;;;;;;0.30;0.15;;;;;;;;;;5019828;28;20208;-83
2023/07/09 06:45:17;;;;;;;0.75;0.35;;;;;;;;;;5033967;28;20043;-83
2023/07/09 06:47:43;;;;;;;0.60;0.50;;;;;;;;;;5027598;28;20073;-82
2023/07/09 06:50:09;;;;;;;0.20;0.20;;;;;;;;;;5019654;28;20029;-82
2023/07/09 06:52:35;;;;;;;0.32;0.22;;;;;;;;;;5031714;28;20037;-82
2023/07/09 06:55:01;;;;;;;0.30;0.20;;;;;;;;;;5009794;28;20648;-82
2023/07/09 06:57:27;;;;;;;0.32;0.22;;;;;;;;;;5013702;28;20134;-84
2023/07/09 06:59:54;;;;;;;0.82;0.60;;;;;;;;;;5026306;28;20125;-83
2023/07/09 07:02:20;;;;;;;0.40;0.40;;;;;;;;;;5005547;28;20111;-84
2023/07/09 07:04:46;;;;;;;0.50;0.38;;;;;;;;;;5025401;28;20182;-84
2023/07/09 07:07:12;;;;;;;0.50;0.28;;;;;;;;;;5014937;28;20045;-82
2023/07/09 07:09:38;;;;;;;1.02;0.38;;;;;;;;;;5033659;28;20098;-82
2023/07/09 07:12:05;;;;;;;0.20;0.20;;;;;;;;;;5015651;28;20203;-83
2023/07/09 07:14:31;;;;;;;0.20;0.20;;;;;;;;;;5030054;28;20572;-83
2023/07/09 07:16:57;;;;;;;0.52;0.30;;;;;;;;;;5016456;28;20044;-83
2023/07/09 07:19:23;;;;;;;0.60;0.38;;;;;;;;;;5021443;28;20613;-83
2023/07/09 07:21:50;;;;;;;0.30;0.30;;;;;;;;;;5013423;28;20029;-83
2023/07/09 07:24:16;;;;;;;0.20;0.15;;;;;;;;;;5014111;28;20068;-83
2023/07/09 07:26:42;;;;;;;0.40;0.40;;;;;;;;;;5016989;28;20501;-83
2023/07/09 07:29:08;;;;;;;0.90;0.35;;;;;;;;;;5012052;28;20052;-82
2023/07/09 07:31:34;;;;;;;0.30;0.30;;;;;;;;;;5003182;28;20041;-83
2023/07/09 07:34:00;;;;;;;0.20;0.20;;;;;;;;;;5008705;28;20045;-83
2023/07/09 07:36:26;;;;;;;0.63;0.43;;;;;;;;;;5027777;28;20048;-82
2023/07/09 07:38:52;;;;;;;0.30;0.30;;;;;;;;;;5010403;28;20568;-84
2023/07/09 07:41:18;;;;;;;0.20;0.10;;;;;;;;;;5041344;28;20067;-82
2023/07/09 07:43:44;;;;;;;0.30;0.25;;;;;;;;;;5030633;28;20131;-83
2023/07/09 07:46:10;;;;;;;0.30;0.30;;;;;;;;;;5008904;28;20476;-82
2023/07/09 07:48:36;;;;;;;0.80;0.25;;;;;;;;;;5035895;28;20045;-82
2023/07/09 07:51:04;;;;;;;0.30;0.20;;;;;;;;;;5029224;28;20052;-83
2023/07/09 07:53:30;;;;;;;0.38;0.38;;;;;;;;;;5018747;28;20519;-82
2023/07/09 07:55:57;;;;;;;0.28;0.25;;;;;;;;;;5033589;28;20108;-83
2023/07/09 07:58:23;;;;;;;0.20;0.20;;;;;;;;;;5026980;28;20665;-83
2023/07/09 08:00:49;;;;;;;0.85;0.40;;;;;;;;;;5040533;28;20069;-82
2023/07/09 08:03:15;;;;;;;0.80;0.73;;;;;;;;;;5030423;28;20068;-82
2023/07/09 08:05:41;;;;;;;0.28;0.28;;;;;;;;;;5038084;28;20043;-83
2023/07/09 08:08:07;;;;;;;1.70;0.45;;;;;;;;;;5042076;28;20045;-82
2023/07/09 08:10:33;;;;;;;2.67;0.70;;;;;;;;;;5006405;28;20113;-83
2023/07/09 08:12:59;;;;;;;0.40;0.30;;;;;;;;;;5039617;28;20040;-82
2023/07/09 08:15:25;;;;;;;0.45;0.43;;;;;;;;;;5037969;28;20735;-82
2023/07/09 08:17:51;;;;;;;0.28;0.20;;;;;;;;;;5035332;28;20041;-82
2023/07/09 08:20:17;;;;;;;0.57;0.30;;;;;;;;;;5023047;28;20120;-83
2023/07/09 08:22:44;;;;;;;0.20;0.17;;;;;;;;;;5032020;28;20033;-82
2023/07/09 08:25:10;;;;;;;0.43;0.30;;;;;;;;;;5036852;28;20052;-82
2023/07/09 08:27:36;;;;;;;1.13;0.63;;;;;;;;;;5044986;28;20045;-84
2023/07/09 08:30:02;;;;;;;0.30;0.30;;;;;;;;;;5038570;28;20047;-83
2023/07/09 08:32:29;;;;;;;0.20;0.20;;;;;;;;;;5028082;28;20051;-82
2023/07/09 08:34:55;;;;;;;0.32;0.25;;;;;;;;;;5035099;28;20048;-82
2023/07/09 08:37:21;;;;;;;0.20;0.10;;;;;;;;;;5017200;28;20044;-82
2023/07/09 08:39:47;;;;;;;0.20;0.10;;;;;;;;;;5028690;28;20052;-82
2023/07/09 08:42:15;;;;;;;0.20;0.20;;;;;;;;;;5036300;28;20689;-82
2023/07/09 08:44:54;;;;;;;0.30;0.20;;;;;;;;;;5022015;28;20168;-82
2023/07/09 08:47:23;;;;;;;0.50;0.20;;;;;;;;;;5043486;28;20994;-84
2023/07/09 08:49:52;;;;;;;0.40;0.28;;;;;;;;;;5049933;28;20044;-82
2023/07/09 08:52:24;;;;;;;0.20;0.20;;;;;;;;;;5032280;28;20037;-81
2023/07/09 08:54:51;;;;;;;0.20;0.20;;;;;;;;;;5038726;28;20065;-84
2023/07/09 08:57:25;;;;;;;0.20;0.10;;;;;;;;;;5032732;28;20076;-83
2023/07/09 08:59:54;;;;;;;0.20;0.20;;;;;;;;;;5016151;28;20106;-83
2023/07/09 09:02:33;;;;;;;0.40;0.30;;;;;;;;;;5019432;28;20049;-82
2023/07/09 09:04:59;;;;;;;0.20;0.20;;;;;;;;;;5017769;28;20122;-83
2023/07/09 09:07:45;;;;;;;0.85;0.40;;;;;;;;;;5030694;28;20125;-83
2023/07/09 09:10:16;;;;;;;0.50;0.20;;;;;;;;;;5024380;28;20047;-84
2023/07/09 09:12:57;;;;;;;0.20;0.20;;;;;;;;;;5032538;28;20037;-85
2023/07/09 09:15:24;;;;;;;0.20;0.20;;;;;;;;;;5030598;28;20045;-85
2023/07/09 09:17:52;;;;;;;0.28;0.28;;;;;;;;;;5033905;28;20842;-83
2023/07/09 09:20:23;;;;;;;0.95;0.22;;;;;;;;;;5038758;28;20040;-83
2023/07/09 09:22:52;;;;;;;0.85;0.30;;;;;;;;;;5031240;28;20049;-83
2023/07/09 09:25:25;;;;;;;0.28;0.22;;;;;;;;;;5038933;28;20342;-83
2023/07/09 09:27:51;;;;;;;0.20;0.20;;;;;;;;;;5040259;28;20194;-85
2023/07/09 09:30:19;;;;;;;0.20;0.20;;;;;;;;;;5010939;28;20099;-84
2023/07/09 09:32:52;;;;;;;1.27;0.30;;;;;;;;;;5035338;28;20049;-83
2023/07/09 09:35:20;;;;;;;0.50;0.20;;;;;;;;;;5017995;28;20037;-85
2023/07/09 09:37:54;;;;;;;0.77;0.20;;;;;;;;;;5025217;28;20495;-83
2023/07/09 09:40:24;;;;;;;0.20;0.20;;;;;;;;;;5013410;28;20871;-84
2023/07/09 09:42:51;;;;;;;0.20;0.20;;;;;;;;;;5054337;28;20053;-83
2023/07/09 09:45:20;;;;;;;0.40;0.15;;;;;;;;;;5034656;28;20483;-83
2023/07/09 09:47:47;;;;;;;0.50;0.30;;;;;;;;;;5016446;28;20524;-83
2023/07/09 09:50:17;;;;;;;0.28;0.20;;;;;;;;;;5034141;28;20460;-83
2023/07/09 09:52:44;;;;;;;0.30;0.25;;;;;;;;;;5035447;28;20517;-84
2023/07/09 09:55:19;;;;;;;0.52;0.28;;;;;;;;;;5027278;28;20049;-86
2023/07/09 09:57:56;;;;;;;;;;;;;;;;;;5023677;28;20114;-85
2023/07/09 10:00:25;;;;;;;0.20;0.20;;;;;;;;;;5033212;28;19924;-85
2023/07/09 10:03:03;;;;;;;0.38;0.30;;;;;;;;;;5013319;28;20083;-84
2023/07/09 10:06:07;;;;;;;0.20;0.13;;;;;;;;;;5020352;28;20041;-84
2023/07/09 10:08:51;;;;;;;0.40;0.20;;;;;;;;;;5043473;28;20128;-84
2023/07/09 10:11:36;;;;;;;0.20;0.10;;;;;;;;;;5040725;28;20501;-85
2023/07/09 10:14:09;;;;;;;0.30;0.22;;;;;;;;;;5035061;28;20037;-82
2023/07/09 10:16:39;;;;;;;0.30;0.20;;;;;;;;;;5039064;28;20065;-83
2023/07/09 10:19:14;;;;;;;0.20;0.20;;;;;;;;;;5021222;28;20568;-82
2023/07/09 10:21:40;;;;;;;0.20;0.10;;;;;;;;;;5030071;28;20536;-84
2023/07/09 10:24:12;;;;;;;0.20;0.20;;;;;;;;;;5034843;28;20107;-83
2023/07/09 10:27:04;;;;;;;0.38;0.30;;;;;;;;;;5019551;28;20573;-84
2023/07/09 10:29:39;;;;;;;0.38;0.28;;;;;;;;;;5019985;28;20537;-83
2023/07/09 10:32:17;;;;;;;0.50;0.30;;;;;;;;;;5037592;28;20041;-83
2023/07/09 10:34:49;;;;;;;0.40;0.20;;;;;;;;;;5027919;28;20549;-85
2023/07/09 10:37:41;;;;;;;0.20;0.10;;;;;;;;;;5034702;28;20053;-84
2023/07/09 10:40:10;;;;;;;0.28;0.17;;;;;;;;;;5017245;28;20060;-83
2023/07/09 10:42:40;;;;;;;0.30;0.20;;;;;;;;;;5040596;28;20032;-80
2023/07/09 10:45:11;;;;;;;0.20;0.17;;;;;;;;;;5026793;28;20048;-82
2023/07/09 10:47:40;;;;;;;0.20;0.20;;;;;;;;;;5022864;28;20037;-83
2023/07/09 10:50:11;;;;;;;0.20;0.10;;;;;;;;;;5026121;28;20037;-83
2023/07/09 10:52:38;;;;;;;0.20;0.20;;;;;;;;;;5018224;28;20086;-82
2023/07/09 10:55:06;;;;;;;0.20;0.10;;;;;;;;;;5025454;28;20132;-83
2023/07/09 10:57:40;;;;;;;0.38;0.20;;;;;;;;;;5038914;28;20393;-84
2023/07/09 11:00:08;;;;;;;0.25;0.15;;;;;;;;;;5052593;28;20054;-83
2023/07/09 11:02:36;;;;;;;0.50;0.30;;;;;;;;;;5036888;28;20036;-85
2023/07/09 11:05:09;;;;;;;0.20;0.17;;;;;;;;;;5036010;28;20524;-83
2023/07/09 11:07:50;;;;;;;0.40;0.30;;;;;;;;;;5018182;28;20132;-83
2023/07/09 11:10:36;;;;;;;0.30;0.30;;;;;;;;;;5020241;28;20564;-82
2023/07/09 11:13:18;;;;;;;0.20;0.10;;;;;;;;;;5061700;28;20055;-81
2023/07/09 11:15:47;;;;;;;0.20;0.10;;;;;;;;;;5018783;28;20159;-83
2023/07/09 11:18:31;;;;;;;0.30;0.20;;;;;;;;;;5028634;28;20041;-86
2023/07/09 11:21:04;;;;;;;0.20;0.10;;;;;;;;;;5008371;28;20501;-84
2023/07/09 11:23:59;;;;;;;0.20;0.20;;;;;;;;;;5039194;28;20052;-81
2023/07/09 11:26:33;;;;;;;0.20;0.20;;;;;;;;;;5007709;28;20064;-81
2023/07/09 11:29:02;;;;;;;0.20;0.20;;;;;;;;;;5037601;28;20500;-81
2023/07/09 11:31:34;;;;;;;0.20;0.20;;;;;;;;;;5037659;28;20075;-81
2023/07/09 11:34:20;;;;;;;0.40;0.30;;;;;;;;;;5036849;28;20513;-82
2023/07/09 11:36:56;;;;;;;0.20;0.20;;;;;;;;;;5054073;28;20084;-81
2023/07/09 11:39:27;;;;;;;0.20;0.10;;;;;;;;;;5034344;28;20068;-85
2023/07/09 11:41:53;;;;;;;0.20;0.20;;;;;;;;;;5022621;28;20040;-82
2023/07/09 11:44:24;;;;;;;0.25;0.20;;;;;;;;;;5025750;28;20052;-82
2023/07/09 11:46:50;;;;;;;0.30;0.20;;;;;;;;;;5046813;28;20048;-81
2023/07/09 11:49:17;;;;;;;0.30;0.30;;;;;;;;;;5042578;28;20068;-86
2023/07/09 11:51:54;;;;;;;0.20;0.20;;;;;;;;;;5041683;28;20051;-81
2023/07/09 11:54:20;;;;;;;0.20;0.10;;;;;;;;;;5057351;22;20122;-81
2023/07/09 11:57:00;;;;;;;0.20;0.20;;;;;;;;;;5017801;28;20501;-80
2023/07/09 11:59:26;;;;;;;0.35;0.20;;;;;;;;;;5045025;28;20178;-81
2023/07/09 12:01:54;;;;;;;0.20;0.10;;;;;;;;;;5028337;28;20049;-80
2023/07/09 12:04:22;;;;;;;0.20;0.20;;;;;;;;;;5037016;28;20123;-81
2023/07/09 12:06:48;;;;;;;0.30;0.30;;;;;;;;;;5039459;28;20043;-80
2023/07/09 12:09:16;;;;;;;0.30;0.30;;;;;;;;;;5036737;28;20658;-80
2023/07/09 12:11:45;;;;;;;0.50;0.20;;;;;;;;;;5036957;28;20398;-80
2023/07/09 12:14:12;;;;;;;0.20;0.17;;;;;;;;;;5042944;28;20606;-80
2023/07/09 12:16:39;;;;;;;0.20;0.20;;;;;;;;;;5039557;28;20539;-81
2023/07/09 12:19:06;;;;;;;0.20;0.20;;;;;;;;;;5036052;28;20040;-81
2023/07/09 12:21:35;;;;;;;0.20;0.20;;;;;;;;;;5014303;28;20113;-81
2023/07/09 12:24:02;;;;;;;0.20;0.20;;;;;;;;;;5046972;28;20082;-80
2023/07/09 12:26:31;;;;;;;0.20;0.20;;;;;;;;;;5029289;28;20033;-83
2023/07/09 12:28:58;;;;;;;0.20;0.10;;;;;;;;;;5027101;28;20078;-81
2023/07/09 12:31:31;;;;;;;0.35;0.30;;;;;;;;;;5042783;28;20422;-79
2023/07/09 12:33:58;;;;;;;0.20;0.13;;;;;;;;;;5039188;28;20136;-78
2023/07/09 12:36:25;;;;;;;0.20;0.10;;;;;;;;;;5035997;28;20045;-78
2023/07/09 12:38:52;;;;;;;0.20;0.10;;;;;;;;;;5038148;28;20040;-78
2023/07/09 12:41:33;;;;;;;0.28;0.20;;;;;;;;;;5037068;28;20048;-79
2023/07/09 12:44:00;;;;;;;0.20;0.10;;;;;;;;;;5030111;28;20036;-79
2023/07/09 12:46:27;;;;;;;0.30;0.20;;;;;;;;;;5030325;28;20456;-77
2023/07/09 12:48:54;;;;;;;0.50;0.38;;;;;;;;;;5026350;28;20473;-78
2023/07/09 12:51:24;;;;;;;0.20;0.10;;;;;;;;;;5026698;28;20041;-79
2023/07/09 12:54:00;;;;;;;0.20;0.10;;;;;;;;;;5023136;28;20037;-78
2023/07/09 12:56:26;;;;;;;0.20;0.20;;;;;;;;;;5044336;28;20079;-79
2023/07/09 12:58:57;;;;;;;0.20;0.20;;;;;;;;;;5024635;28;20915;-78
2023/07/09 13:01:25;;;;;;;0.77;0.50;;;;;;;;;;5034909;28;20419;-80
2023/07/09 13:03:57;;;;;;;0.20;0.10;;;;;;;;;;5027718;28;20556;-78
2023/07/09 13:06:31;;;;;;;0.30;0.28;;;;;;;;;;5040775;28;20039;-80
2023/07/09 13:08:58;;;;;;;0.20;0.20;;;;;;;;;;5033747;28;20038;-78
2023/07/09 13:11:25;;;;;;;0.22;0.22;;;;;;;;;;5037567;28;20040;-79
2023/07/09 13:13:59;;;;;;;0.20;0.20;;;;;;;;;;5035872;28;20052;-78
2023/07/09 13:16:25;;;;;;;0.38;0.20;;;;;;;;;;5036461;28;20036;-79
2023/07/09 13:18:51;;;;;;;0.20;0.10;;;;;;;;;;5035350;28;20439;-78
2023/07/09 13:21:18;;;;;;;0.20;0.20;;;;;;;;;;5025704;28;20096;-80
2023/07/09 13:23:46;;;;;;;0.20;0.20;;;;;;;;;;5025776;28;20083;-80
2023/07/09 13:26:12;;;;;;;1.15;0.25;;;;;;;;;;5039460;28;20529;-81
2023/07/09 13:28:39;;;;;;;0.20;0.20;;;;;;;;;;5032455;28;20043;-80
2023/07/09 13:31:11;;;;;;;0.73;0.47;;;;;;;;;;5020865;28;20090;-79
2023/07/09 13:33:37;;;;;;;0.30;0.30;;;;;;;;;;5039706;28;20044;-79
2023/07/09 13:36:03;;;;;;;0.30;0.30;;;;;;;;;;4990235;28;20180;-81
2023/07/09 13:38:30;;;;;;;0.20;0.20;;;;;;;;;;5013580;28;20041;-80
2023/07/09 13:41:01;;;;;;;0.22;0.20;;;;;;;;;;5043240;28;20646;-80
2023/07/09 13:43:32;;;;;;;0.20;0.20;;;;;;;;;;5047032;28;20068;-80
2023/07/09 13:45:58;;;;;;;0.20;0.17;;;;;;;;;;5038622;28;20642;-80
2023/07/09 13:48:25;;;;;;;0.20;0.10;;;;;;;;;;5028108;28;20041;-80
2023/07/09 13:50:52;;;;;;;0.45;0.40;;;;;;;;;;5021498;28;20033;-79
2023/07/09 13:53:21;;;;;;;0.20;0.20;;;;;;;;;;5047088;28;20395;-80
2023/07/09 13:55:49;;;;;;;0.80;0.20;;;;;;;;;;5036906;28;20037;-80
2023/07/09 13:58:16;;;;;;;0.30;0.20;;;;;;;;;;5022773;28;20543;-80
2023/07/09 14:00:43;;;;;;;0.30;0.30;;;;;;;;;;5024099;28;20042;-79
2023/07/09 14:03:18;;;;;;;0.30;0.30;;;;;;;;;;5029029;28;20091;-78
2023/07/09 14:05:45;;;;;;;0.20;0.20;;;;;;;;;;5042919;28;20029;-79
2023/07/09 14:08:11;;;;;;;0.20;0.20;;;;;;;;;;5020241;28;20226;-78
2023/07/09 14:10:37;;;;;;;0.20;0.20;;;;;;;;;;5016730;28;20037;-79
2023/07/09 14:13:04;;;;;;;0.40;0.30;;;;;;;;;;5022527;28;20045;-80
2023/07/09 14:15:30;;;;;;;0.20;0.10;;;;;;;;;;5019370;28;20106;-80
2023/07/09 14:17:56;;;;;;;0.20;0.20;;;;;;;;;;5024339;28;20128;-80
2023/07/09 14:20:23;;;;;;;0.20;0.20;;;;;;;;;;5033509;28;20446;-80
2023/07/09 14:22:50;;;;;;;0.20;0.20;;;;;;;;;;5019125;28;20630;-81
2023/07/09 14:25:19;;;;;;;0.20;0.20;;;;;;;;;;5023907;28;20029;-81
2023/07/09 14:27:45;;;;;;;0.20;0.20;;;;;;;;;;5033555;28;20771;-80
2023/07/09 14:30:16;;;;;;;0.20;0.20;;;;;;;;;;5027800;28;20037;-80
2023/07/09 14:32:42;;;;;;;0.20;0.10;;;;;;;;;;5032032;28;20041;-80
2023/07/09 14:35:18;;;;;;;0.28;0.25;;;;;;;;;;5022082;28;20524;-80
2023/07/09 14:37:45;;;;;;;0.20;0.10;;;;;;;;;;5024968;28;20057;-80
2023/07/09 14:40:12;;;;;;;0.45;0.30;;;;;;;;;;5032594;28;20059;-80
2023/07/09 14:42:39;;;;;;;0.40;0.20;;;;;;;;;;5019158;28;20456;-80
2023/07/09 14:45:07;;;;;;;0.20;0.20;;;;;;;;;;5035576;28;20541;-80
2023/07/09 14:47:33;;;;;;;0.20;0.20;;;;;;;;;;5015501;28;20690;-80
2023/07/09 14:49:59;;;;;;;0.20;0.10;;;;;;;;;;5047803;28;20041;-80